Time;durP1;ratioP1;P1;durP2;ratioP2;P2;SDS_P1;SDS_P2;PMS_P1;PMS_P2;Temp;Humidity;BMP_temperature;BMP_pressure;BME280_temperature;BME280_humidity;BME280_pressure;Samples;Min_cycle;Max_cycle;Signal;HPM_P1;HPM_P2
2021/03/24 00:01:36;;;;;;;;;;;;;;;5.95;71.48;101626.26;1610455;88;20301;-75
2021/03/24 00:04:20;;;;;;;;;;;;;;;5.98;71.41;101623.75;1599397;88;20315;-76
2021/03/24 00:07:05;;;;;;;;;;;;;;;6.01;71.36;101631.06;1632866;86;20340;-74
2021/03/24 00:09:50;;;;;;;;;;;;;;;6.05;71.47;101630.28;1619806;86;20301;-74
2021/03/24 00:12:35;;;;;;;;;;;;;;;6.10;71.45;101633.38;1625185;88;20322;-75
2021/03/24 00:15:21;;;;;;;;;;;;;;;6.12;71.38;101634.70;1614244;88;20198;-75
2021/03/24 00:18:07;;;;;;;;;;;;;;;6.16;71.43;101623.64;1625213;88;20282;-74
2021/03/24 00:20:53;;;;;;;;;;;;;;;6.20;71.45;101632.72;1599620;89;20209;-75
2021/03/24 00:23:37;;;;;;;;;;;;;;;6.22;71.36;101623.76;1605118;88;20348;-75
2021/03/24 00:26:22;;;;;;;;;;;;;;;6.24;71.41;101619.06;1612612;88;20322;-74
2021/03/24 00:29:07;;;;;;;;;;;;;;;6.25;71.40;101622.50;1625228;88;20286;-74
2021/03/24 00:31:51;;;;;;;;;;;;;;;6.27;71.39;101625.95;1624698;88;20589;-74
2021/03/24 00:34:37;;;;;;;;;;;;;;;6.25;71.41;101625.06;1625271;88;20297;-74
2021/03/24 00:37:22;;;;;;;;;;;;;;;6.23;71.41;101625.06;1625325;88;20625;-74
2021/03/24 00:40:10;;;;;;;;;;;;;;;6.21;71.40;101625.45;1618040;86;20325;-75
2021/03/24 00:42:55;;;;;;;;;;;;;;;6.20;71.46;101622.45;1626738;88;20266;-75
2021/03/24 00:45:39;;;;;;;;;;;;;;;6.21;71.53;101624.17;1618177;88;20173;-75
2021/03/24 00:48:30;;;;;;;;;;;;;;;6.19;71.51;101624.98;1602554;86;20293;-75
2021/03/24 00:51:14;;;;;;;;;;;;;;;6.16;71.40;101623.64;1615510;86;20262;-76
2021/03/24 00:53:59;;;;;;;;;;;;;;;6.14;71.50;101626.60;1616311;87;20312;-75
2021/03/24 00:56:44;;;;;;;;;;;;;;;6.11;71.47;101631.69;1599459;88;20329;-75
2021/03/24 00:59:28;;;;;;;;;;;;;;;6.08;71.54;101634.19;1602560;87;20337;-74
2021/03/24 01:02:13;;;;;;;;;;;;;;;6.07;71.52;101636.31;1599592;88;20300;-74
2021/03/24 01:04:58;;;;;;;;;;;;;;;6.03;71.50;101634.52;1600289;88;20340;-74
2021/03/24 01:07:47;;;;;;;;;;;;;;;6.01;71.63;101634.91;1613924;88;20574;-74
2021/03/24 01:10:33;;;;;;;;;;;;;;;5.98;71.66;101634.02;1605272;88;20320;-74
2021/03/24 01:13:18;;;;;;;;;;;;;;;5.97;71.70;101628.44;1624984;88;20274;-74
2021/03/24 01:16:03;;;;;;;;;;;;;;;5.95;71.68;101621.13;1623994;88;20552;-74
2021/03/24 01:18:48;;;;;;;;;;;;;;;5.93;71.69;101621.93;1626484;86;20333;-75
2021/03/24 01:21:32;;;;;;;;;;;;;;;5.92;71.73;101622.77;1620460;86;20298;-75
2021/03/24 01:24:17;;;;;;;;;;;;;;;5.91;71.72;101628.31;1625394;88;20419;-74
2021/03/24 01:27:02;;;;;;;;;;;;;;;5.89;71.68;101631.27;1618138;88;21159;-75
2021/03/24 01:29:46;;;;;;;;;;;;;;;5.87;71.71;101626.50;1599611;88;20304;-75
2021/03/24 01:32:31;;;;;;;;;;;;;;;5.84;71.66;101631.98;1599709;89;20292;-74
2021/03/24 01:35:17;;;;;;;;;;;;;;;5.84;71.81;101638.40;1604781;88;21215;-74
2021/03/24 01:38:01;;;;;;;;;;;;;;;5.82;71.87;101625.54;1599847;89;20313;-74
2021/03/24 01:40:49;;;;;;;;;;;;;;;5.84;71.90;101636.70;1618103;86;20289;-74
2021/03/24 01:43:36;;;;;;;;;;;;;;;5.86;71.83;101633.75;1614735;88;20304;-75
2021/03/24 01:46:24;;;;;;;;;;;;;;;5.90;71.94;101629.57;1607813;88;20316;-76
2021/03/24 01:49:15;;;;;;;;;;;;;;;5.94;71.96;101632.23;1595348;88;20305;-75
2021/03/24 01:52:03;;;;;;;;;;;;;;;5.96;71.89;101626.70;1618033;88;20324;-75
2021/03/24 01:54:48;;;;;;;;;;;;;;;6.01;72.00;101629.78;1569522;91;20603;-74
2021/03/24 01:57:33;;;;;;;;;;;;;;;6.04;71.92;101625.56;1562119;90;20622;-75
2021/03/24 02:00:21;;;;;;;;;;;;;;;6.06;71.92;101621.33;1565040;88;20372;-75
2021/03/24 02:03:06;;;;;;;;;;;;;;;6.07;71.90;101621.77;1610105;88;20325;-75
2021/03/24 02:05:51;;;;;;;;;;;;;;;6.10;71.92;101628.25;1599125;88;20309;-74
2021/03/24 02:08:39;;;;;;;;;;;;;;;6.12;71.95;101629.14;1599939;88;20296;-74
2021/03/24 02:11:36;;;;;;;;;;;;;;;6.13;71.92;101636.43;1602682;88;21071;-76
2021/03/24 02:14:30;;;;;;;;;;;;;;;6.14;71.96;101632.61;1600883;89;20308;-74
2021/03/24 02:17:16;;;;;;;;;;;;;;;6.13;71.96;101633.44;1616083;87;20316;-74
2021/03/24 02:20:13;;;;;;;;;;;;;;;6.12;71.99;101638.13;1648557;86;20530;-75
2021/03/24 02:23:28;;;;;;;;;;;;;;;6.09;72.05;101634.22;1663254;86;20633;-74
2021/03/24 02:26:45;;;;;;;;;;;;;;;6.08;71.94;101638.91;1619253;86;20479;-74
2021/03/24 02:29:30;;;;;;;;;;;;;;;6.04;71.92;101638.41;1641729;86;20273;-74
2021/03/24 02:32:16;;;;;;;;;;;;;;;5.98;71.99;101640.44;1644640;85;20301;-75
2021/03/24 02:35:04;;;;;;;;;;;;;;;5.96;72.09;101636.97;1625659;88;20589;-75
2021/03/24 02:37:50;;;;;;;;;;;;;;;5.92;72.13;101631.33;1638279;87;20359;-74
2021/03/24 02:40:35;;;;;;;;;;;;;;;5.89;72.07;101624.86;1641673;85;20329;-74
2021/03/24 02:43:21;;;;;;;;;;;;;;;5.87;72.08;101625.20;1620004;87;20578;-74
2021/03/24 02:46:08;;;;;;;;;;;;;;;5.85;72.10;101626.02;1632241;85;20417;-74
2021/03/24 02:48:53;;;;;;;;;;;;;;;5.81;72.10;101633.20;1648115;85;20319;-74
2021/03/24 02:51:39;;;;;;;;;;;;;;;5.78;72.18;101628.02;1671239;85;20267;-74
2021/03/24 02:54:26;;;;;;;;;;;;;;;5.75;72.18;101627.53;1669464;85;20263;-74
2021/03/24 02:57:10;;;;;;;;;;;;;;;5.74;72.22;101630.07;1586282;89;20264;-74
2021/03/24 02:59:54;;;;;;;;;;;;;;;5.70;72.18;101625.33;1617403;88;20279;-76
2021/03/24 03:02:41;;;;;;;;;;;;;;;5.67;72.27;101624.40;1617204;88;20292;-75
2021/03/24 03:05:34;;;;;;;;;;;;;;;5.65;72.24;101627.80;1620434;87;20320;-75
2021/03/24 03:08:28;;;;;;;;;;;;;;;5.62;72.28;101627.73;1615973;87;333035;-75
2021/03/24 03:11:20;;;;;;;;;;;;;;;5.58;72.32;101624.66;1600151;89;20320;-75
2021/03/24 03:14:23;;;;;;;;;;;;;;;5.59;72.42;101624.24;1616577;87;20331;-75
2021/03/24 03:17:14;;;;;;;;;;;;;;;5.56;72.44;101622.48;1642013;87;20313;-75
2021/03/24 03:20:08;;;;;;;;;;;;;;;5.57;72.52;101622.06;1635023;86;20299;-76
2021/03/24 03:23:08;;;;;;;;;;;;;;;5.57;72.43;101625.91;1621718;87;20307;-75
2021/03/24 03:26:08;;;;;;;;;;;;;;;5.56;72.46;101621.61;1619728;85;20316;-75
2021/03/24 03:28:55;;;;;;;;;;;;;;;5.54;72.46;101621.58;1644050;87;20581;-74
2021/03/24 03:31:42;;;;;;;;;;;;;;;5.58;72.61;101621.23;1637513;86;20284;-76
2021/03/24 03:34:27;;;;;;;;;;;;;;;5.59;72.62;101620.39;1643163;87;20333;-75
2021/03/24 03:37:12;;;;;;;;;;;;;;;5.62;72.57;101629.02;1637967;86;20307;-75
2021/03/24 03:39:57;;;;;;;;;;;;;;;5.61;72.49;101626.42;1625947;86;20302;-74
2021/03/24 03:42:42;;;;;;;;;;;;;;;5.65;72.67;101615.39;1618285;87;21330;-75
2021/03/24 03:45:26;;;;;;;;;;;;;;;5.70;72.64;101615.48;1617734;88;20316;-75
2021/03/24 03:48:17;;;;;;;;;;;;;;;5.75;72.69;101617.69;1614683;86;20301;-75
2021/03/24 03:51:06;;;;;;;;;;;;;;;5.80;72.72;101620.79;1635888;87;20301;-75
2021/03/24 03:54:07;;;;;;;;;;;;;;;5.85;72.72;101624.31;1644101;87;20288;-74
2021/03/24 03:57:07;;;;;;;;;;;;;;;5.88;72.67;101624.38;1640328;86;20628;-74
2021/03/24 04:00:07;;;;;;;;;;;;;;;5.90;72.74;101621.45;1599825;88;20659;-74
2021/03/24 04:03:10;;;;;;;;;;;;;;;5.94;72.74;101621.09;1616940;87;20327;-74
2021/03/24 04:06:01;;;;;;;;;;;;;;;5.95;72.76;101621.13;1617673;86;20954;-74
2021/03/24 04:08:47;;;;;;;;;;;;;;;5.96;72.68;101620.28;1621167;86;20574;-75
2021/03/24 04:11:34;;;;;;;;;;;;;;;5.95;72.69;101621.54;1617971;88;20576;-75
2021/03/24 04:14:22;;;;;;;;;;;;;;;5.92;72.69;101617.63;1612249;87;20292;-75
2021/03/24 04:17:10;;;;;;;;;;;;;;;5.92;72.76;101620.20;1612124;89;20329;-75
2021/03/24 04:19:54;;;;;;;;;;;;;;;5.87;72.66;101621.36;1628849;86;20574;-74
2021/03/24 04:22:40;;;;;;;;;;;;;;;5.82;72.71;101619.13;1612076;87;21058;-74
2021/03/24 04:25:28;;;;;;;;;;;;;;;5.78;72.75;101617.75;1612444;89;20313;-74
2021/03/24 04:28:15;;;;;;;;;;;;;;;5.75;72.79;101618.97;1613899;87;20264;-74
2021/03/24 04:31:03;;;;;;;;;;;;;;;5.73;72.77;101618.94;1598709;89;20264;-74
2021/03/24 04:33:47;;;;;;;;;;;;;;;5.71;72.84;101621.06;1610222;89;20519;-74
2021/03/24 04:36:37;;;;;;;;;;;;;;;5.70;72.92;101611.62;1610173;89;20281;-74
2021/03/24 04:39:31;;;;;;;;;;;;;;;5.67;72.89;101621.41;1606605;87;20553;-74
2021/03/24 04:42:19;;;;;;;;;;;;;;;5.65;72.89;101619.23;1584783;89;20290;-74
2021/03/24 04:45:13;;;;;;;;;;;;;;;5.61;72.87;101627.70;1586255;88;20279;-74
2021/03/24 04:48:00;;;;;;;;;;;;;;;5.57;72.94;101628.47;1595138;89;20289;-74
2021/03/24 04:50:47;;;;;;;;;;;;;;;5.55;72.94;101631.42;1657560;86;20275;-74
2021/03/24 04:53:34;;;;;;;;;;;;;;;5.57;73.07;101638.73;1638123;87;20294;-74
2021/03/24 04:56:20;;;;;;;;;;;;;;;5.57;73.07;101633.19;1639674;87;20275;-74
2021/03/24 04:59:05;;;;;;;;;;;;;;;5.61;73.14;101639.25;1639098;87;20915;-74
2021/03/24 05:01:52;;;;;;;;;;;;;;;5.66;73.18;101640.21;1630030;87;20320;-74
2021/03/24 05:04:41;;;;;;;;;;;;;;;5.69;73.16;101640.27;1612223;87;20352;-76
2021/03/24 05:07:38;;;;;;;;;;;;;;;5.73;73.10;101642.03;1611845;87;20516;-77
2021/03/24 05:10:26;;;;;;;;;;;;;;;5.76;73.15;101643.37;1616143;87;20303;-77
2021/03/24 05:13:26;;;;;;;;;;;;;;;5.79;73.19;101644.73;1609709;87;20313;-78
2021/03/24 05:16:20;;;;;;;;;;;;;;;5.83;73.19;101646.52;1592553;89;20409;-77
2021/03/24 05:19:05;;;;;;;;;;;;;;;5.85;73.20;101647.41;1594061;87;20319;-76
2021/03/24 05:21:56;;;;;;;;;;;;;;;5.89;73.19;101649.66;1593307;87;20286;-76
2021/03/24 05:24:42;;;;;;;;;;;;;;;5.89;73.24;101653.09;1590051;89;20955;-75
2021/03/24 05:27:51;;;;;;;;;;;;;;;5.90;73.24;101649.69;1617135;88;20335;-75
2021/03/24 05:30:38;;;;;;;;;;;;;;;5.87;73.16;101650.87;1565149;90;20312;-75
2021/03/24 05:33:26;;;;;;;;;;;;;;;5.87;73.27;101656.43;1608444;87;20327;-75
2021/03/24 05:36:20;;;;;;;;;;;;;;;5.86;73.33;101654.28;1623709;87;20301;-75
2021/03/24 05:39:26;;;;;;;;;;;;;;;5.87;73.28;101652.58;1614305;87;20326;-72
2021/03/24 05:42:26;;;;;;;;;;;;;;;5.87;73.31;101652.16;1606294;87;20315;-73
2021/03/24 05:45:31;;;;;;;;;;;;;;;5.85;73.33;101650.40;1593482;87;20324;-73
2021/03/24 05:48:47;;;;;;;;;;;;;;;5.83;73.36;101647.80;1600496;86;20314;-73
2021/03/24 05:51:35;;;;;;;;;;;;;;;5.82;73.39;101649.05;1588238;87;20279;-73
2021/03/24 05:54:36;;;;;;;;;;;;;;;5.82;73.41;101648.64;1613922;87;20298;-73
2021/03/24 05:57:24;;;;;;;;;;;;;;;5.79;73.35;101647.29;1639682;86;20292;-73
2021/03/24 06:00:27;;;;;;;;;;;;;;;5.76;73.42;101652.36;1627171;85;20304;-73
2021/03/24 06:03:31;;;;;;;;;;;;;;;5.76;73.47;101654.06;1603295;87;20572;-73
2021/03/24 06:06:28;;;;;;;;;;;;;;;5.76;73.46;101654.93;1567690;86;20308;-73
2021/03/24 06:09:19;;;;;;;;;;;;;;;5.75;73.47;101659.61;1636456;86;20288;-73
2021/03/24 06:12:27;;;;;;;;;;;;;;;5.75;73.46;101658.75;1629578;85;20304;-75
2021/03/24 06:15:30;;;;;;;;;;;;;;;5.76;73.45;101660.48;1643152;85;20169;-75
2021/03/24 06:18:26;;;;;;;;;;;;;;;5.77;73.55;101665.64;1636227;85;20304;-75
2021/03/24 06:21:15;;;;;;;;;;;;;;;5.78;73.52;101657.11;1640677;85;20269;-76
2021/03/24 06:24:03;;;;;;;;;;;;;;;5.79;73.58;101660.13;1636150;87;20257;-76
2021/03/24 06:27:06;;;;;;;;;;;;;;;5.81;73.55;101661.02;1640576;87;20528;-75
2021/03/24 06:30:17;;;;;;;;;;;;;;;5.82;73.50;101664.45;1638287;85;20594;-76
2021/03/24 06:33:21;;;;;;;;;;;;;;;5.83;73.56;101655.92;1633506;86;20297;-76
2021/03/24 06:36:13;;;;;;;;;;;;;;;5.86;73.60;101662.39;1636945;86;21450;-75
2021/03/24 06:39:01;;;;;;;;;;;;;;;5.90;73.64;101658.67;1619534;86;20321;-75
2021/03/24 06:41:58;;;;;;;;;;;;;;;5.98;73.67;101657.55;1633035;85;20305;-75
2021/03/24 06:45:11;;;;;;;;;;;;;;;6.04;73.67;101662.80;1630546;87;20319;-75
2021/03/24 06:48:21;;;;;;;;;;;;;;;6.08;73.65;101665.88;1633225;85;20327;-75
2021/03/24 06:51:32;;;;;;;;;;;;;;;6.16;73.63;101660.46;1635511;85;20799;-75
2021/03/24 06:54:40;;;;;;;;;;;;;;;6.22;73.71;101669.98;1641510;85;20301;-75
2021/03/24 06:57:55;;;;;;;;;;;;;;;6.29;73.67;101668.81;1638643;85;20301;-75
2021/03/24 07:00:58;;;;;;;;;;;;;;;6.36;73.65;101672.78;1645807;85;20319;-75
2021/03/24 07:04:01;;;;;;;;;;;;;;;6.37;73.60;101672.80;1614267;86;20434;-75
2021/03/24 07:06:53;;;;;;;;;;;;;;;6.42;73.66;101672.89;1637541;85;20285;-74
2021/03/24 07:10:12;;;;;;;;;;;;;;;6.46;73.67;101675.54;1572532;90;20329;-74
2021/03/24 07:13:26;;;;;;;;;;;;;;;6.48;73.62;101672.58;1574999;89;20375;-75
2021/03/24 07:16:32;;;;;;;;;;;;;;;6.48;73.68;101678.14;1589210;89;20320;-75
2021/03/24 07:19:41;;;;;;;;;;;;;;;6.50;73.71;101679.03;1588114;89;20676;-76
2021/03/24 07:22:38;;;;;;;;;;;;;;;6.45;73.64;101686.66;1543086;91;20335;-76
2021/03/24 07:25:46;;;;;;;;;;;;;;;6.45;73.66;101683.22;1558226;88;20666;-75
2021/03/24 07:28:49;;;;;;;;;;;;;;;6.42;73.76;101682.75;1593208;88;20378;-76
2021/03/24 07:31:49;;;;;;;;;;;;;;;6.44;73.83;101683.64;1600598;89;20343;-75
2021/03/24 07:34:58;;;;;;;;;;;;;;;6.43;73.77;101680.63;1597191;89;21242;-75
2021/03/24 07:38:12;;;;;;;;;;;;;;;6.40;73.80;101685.70;1592186;89;20466;-75
2021/03/24 07:41:16;;;;;;;;;;;;;;;6.40;73.74;101693.83;1592324;89;20329;-75
2021/03/24 07:44:28;;;;;;;;;;;;;;;6.38;73.82;101696.38;1597028;89;20321;-75
2021/03/24 07:47:40;;;;;;;;;;;;;;;6.38;73.83;101696.79;1622260;85;20633;-75
2021/03/24 07:50:39;;;;;;;;;;;;;;;6.34;73.83;101698.44;1622256;86;20597;-74
2021/03/24 07:53:35;;;;;;;;;;;;;;;6.33;73.89;101696.70;1627804;86;20317;-77
2021/03/24 07:56:30;;;;;;;;;;;;;;;6.36;73.91;101704.47;1608085;87;20577;-77
2021/03/24 07:59:36;;;;;;;;;;;;;;;6.39;73.97;101702.38;1627352;86;20300;-77
2021/03/24 08:02:36;;;;;;;;;;;;;;;6.43;73.99;101700.31;1626624;86;20281;-77
2021/03/24 08:05:50;;;;;;;;;;;;;;;6.47;73.98;101696.54;1637673;86;20316;-74
2021/03/24 08:08:58;;;;;;;;;;;;;;;6.52;74.01;101701.34;1608752;87;20597;-75
2021/03/24 08:11:51;;;;;;;;;;;;;;;6.57;73.99;101696.29;1624266;86;20278;-74
2021/03/24 08:14:52;;;;;;;;;;;;;;;6.64;74.03;101694.27;1635586;86;20326;-74
2021/03/24 08:17:43;;;;;;;;;;;;;;;6.72;74.04;101699.55;1639139;85;20316;-80
2021/03/24 08:20:50;;;;;;;;;;;;;;;6.78;73.99;101692.77;1640871;85;20603;-75
2021/03/24 08:24:12;;;;;;;;;;;;;;;6.84;74.00;101684.30;1641970;85;20280;-80
2021/03/24 08:27:03;;;;;;;;;;;;;;;6.91;73.99;101683.55;1634180;85;20614;-80
2021/03/24 08:30:00;;;;;;;;;;;;;;;6.98;73.95;101680.25;1612315;87;20208;-80
2021/03/24 08:33:12;;;;;;;;;;;;;;;7.06;74.00;101678.66;1639963;85;20277;-80
2021/03/24 08:36:20;;;;;;;;;;;;;;;7.13;73.86;101688.63;1644371;85;20265;-80
2021/03/24 08:39:28;;;;;;;;;;;;;;;7.17;73.90;101680.98;1643376;85;20281;-80
2021/03/24 08:42:33;;;;;;;;;;;;;;;7.23;73.58;101681.48;1638503;85;20205;-79
2021/03/24 08:45:34;;;;;;;;;;;;;;;7.25;73.62;101681.95;1641012;85;20288;-80
2021/03/24 08:48:50;;;;;;;;;;;;;;;7.30;73.64;101684.14;1637857;85;20331;-80
2021/03/24 08:51:41;;;;;;;;;;;;;;;7.31;73.53;101687.16;1641729;85;20333;-80
2021/03/24 08:54:50;;;;;;;;;;;;;;;7.33;73.53;101683.32;1563203;90;20595;-80
2021/03/24 08:57:58;;;;;;;;;;;;;;;7.40;73.49;101681.70;1563515;90;20329;-81
2021/03/24 09:00:52;;;;;;;;;;;;;;;7.42;73.46;101682.59;1563621;90;20340;-80
2021/03/24 09:03:52;;;;;;;;;;;;;;;7.47;73.45;101680.52;1559495;90;20598;-79
2021/03/24 09:06:49;;;;;;;;;;;;;;;7.54;73.38;101684.91;1561217;90;20383;-79
2021/03/24 09:09:43;;;;;;;;;;;;;;;7.57;73.34;101688.81;1565840;89;21231;-75
2021/03/24 09:12:46;;;;;;;;;;;;;;;7.60;73.24;101690.14;1566021;90;20421;-75
2021/03/24 09:15:34;;;;;;;;;;;;;;;7.63;73.34;101682.88;1548240;90;20378;-78
2021/03/24 09:18:30;;;;;;;;;;;;;;;7.71;73.23;101687.71;1547927;90;20321;-78
2021/03/24 09:21:23;;;;;;;;;;;;;;;7.73;73.09;101680.87;1546680;90;20356;-78
2021/03/24 09:24:14;;;;;;;;;;;;;;;7.77;73.02;101687.79;1549262;90;21306;-78
2021/03/24 09:27:36;;;;;;;;;;;;;;;7.81;73.01;101679.23;1531929;92;20350;-79
2021/03/24 09:30:24;;;;;;;;;;;;;;;7.86;72.98;101677.58;1526488;92;20741;-80
2021/03/24 09:33:39;;;;;;;;;;;;;;;7.90;73.01;101679.34;1599720;88;21034;-79
2021/03/24 09:36:40;;;;;;;;;;;;;;;7.92;72.97;101676.78;1599442;87;20324;-79
2021/03/24 09:39:37;;;;;;;;;;;;;;;7.97;72.95;101679.86;1593336;87;20301;-75
2021/03/24 09:42:28;;;;;;;;;;;;;;;8.01;72.93;101679.89;1623424;86;20302;-76
2021/03/24 09:45:16;;;;;;;;;;;;;;;8.01;72.85;101673.03;1627917;86;20316;-76
2021/03/24 09:48:07;;;;;;;;;;;;;;;8.03;72.81;101676.91;1625458;86;20286;-75
2021/03/24 09:51:07;;;;;;;;;;;;;;;8.04;72.72;101669.62;1627760;86;20258;-75
2021/03/24 09:53:51;;;;;;;;;;;;;;;8.02;72.66;101668.32;1620213;86;20278;-76
2021/03/24 09:56:35;;;;;;;;;;;;;;;8.02;72.75;101669.61;1627896;86;20290;-76
2021/03/24 09:59:26;;;;;;;;;;;;;;;8.01;72.72;101667.02;1630983;86;20281;-76
2021/03/24 10:02:17;;;;;;;;;;;;;;;8.01;72.72;101665.30;1622096;86;20274;-76
2021/03/24 10:05:05;;;;;;;;;;;;;;;8.07;72.85;101664.51;1623199;86;20755;-75
2021/03/24 10:08:01;;;;;;;;;;;;;;;8.14;72.73;101661.16;1627835;86;20170;-75
2021/03/24 10:10:47;;;;;;;;;;;;;;;8.21;72.78;101665.10;1626223;86;20519;-75
2021/03/24 10:13:37;;;;;;;;;;;;;;;8.28;72.66;101658.30;1627985;86;20524;-75
2021/03/24 10:16:31;;;;;;;;;;;;;;;8.29;72.54;101665.18;1624941;86;20305;-76
2021/03/24 10:19:33;;;;;;;;;;;;;;;8.24;72.37;101659.11;1625391;86;20716;-76
2021/03/24 10:22:21;;;;;;;;;;;;;;;8.28;72.41;101659.59;1624582;86;20302;-75
2021/03/24 10:25:12;;;;;;;;;;;;;;;8.26;72.47;101660.86;1631128;86;20291;-75
2021/03/24 10:28:00;;;;;;;;;;;;;;;8.32;72.46;101660.02;1622334;86;20294;-75
2021/03/24 10:30:57;;;;;;;;;;;;;;;8.32;72.41;101656.62;1627756;86;20410;-76
2021/03/24 10:33:51;;;;;;;;;;;;;;;8.28;72.30;101655.30;1628080;86;20302;-75
2021/03/24 10:36:54;;;;;;;;;;;;;;;8.27;72.41;101648.84;1626972;86;21187;-78
2021/03/24 10:39:45;;;;;;;;;;;;;;;8.26;72.33;101656.99;1625657;86;20938;-78
2021/03/24 10:42:48;;;;;;;;;;;;;;;8.19;72.13;101651.34;1624742;86;20691;-78
2021/03/24 10:45:43;;;;;;;;;;;;;;;8.15;72.25;101656.02;1625259;86;20309;-78
2021/03/24 10:48:45;;;;;;;;;;;;;;;8.11;72.17;101649.53;1628918;86;20246;-78
2021/03/24 10:51:53;;;;;;;;;;;;;;;8.12;72.29;101653.83;1625324;86;20418;-78
2021/03/24 10:54:38;;;;;;;;;;;;;;;8.14;72.31;101655.58;1619824;86;20308;-79
2021/03/24 10:57:41;;;;;;;;;;;;;;;8.18;72.26;101649.61;1611612;87;20874;-79
2021/03/24 11:00:33;;;;;;;;;;;;;;;8.25;72.27;101653.11;1618188;86;20304;-78
2021/03/24 11:03:24;;;;;;;;;;;;;;;8.24;72.06;101653.96;1623224;86;20297;-75
2021/03/24 11:06:15;;;;;;;;;;;;;;;8.25;72.10;101642.80;1622425;86;20420;-76
2021/03/24 11:09:09;;;;;;;;;;;;;;;8.24;72.09;101641.94;1621500;86;20309;-78
2021/03/24 11:12:04;;;;;;;;;;;;;;;8.24;72.09;101639.37;1624477;86;20350;-79
2021/03/24 11:15:00;;;;;;;;;;;;;;;8.21;72.01;101634.61;1628606;86;20329;-78
2021/03/24 11:17:44;;;;;;;;;;;;;;;8.17;72.06;101635.00;1600197;88;20309;-79
2021/03/24 11:20:48;;;;;;;;;;;;;;;8.21;72.13;101628.17;1625007;87;20625;-79
2021/03/24 11:23:42;;;;;;;;;;;;;;;8.21;72.05;101627.74;1626256;86;20312;-78
2021/03/24 11:26:52;;;;;;;;;;;;;;;8.25;72.09;101633.79;1630504;86;20709;-78
2021/03/24 11:29:40;;;;;;;;;;;;;;;8.25;72.03;101620.91;1621443;86;20313;-78
2021/03/24 11:32:34;;;;;;;;;;;;;;;8.27;72.04;101633.37;1590312;86;20782;-78
2021/03/24 11:35:31;;;;;;;;;;;;;;;8.29;72.03;101623.53;1628513;86;20620;-78
2021/03/24 11:38:43;;;;;;;;;;;;;;;8.33;71.97;101619.27;1622972;86;20305;-78
2021/03/24 11:41:33;;;;;;;;;;;;;;;8.34;71.78;101618.84;1533897;91;20331;-78
2021/03/24 11:44:20;;;;;;;;;;;;;;;8.28;71.55;101617.94;1552987;90;20782;-78
2021/03/24 11:47:27;;;;;;;;;;;;;;;8.23;71.66;101609.30;1553744;90;20314;-78
2021/03/24 11:50:29;;;;;;;;;;;;;;;8.22;71.78;101608.86;1510120;93;20324;-78
2021/03/24 11:53:16;;;;;;;;;;;;;;;8.23;71.74;101601.99;1541960;90;20305;-78
2021/03/24 11:56:19;;;;;;;;;;;;;;;8.26;71.71;101605.89;1545867;90;20353;-78
2021/03/24 11:59:26;;;;;;;;;;;;;;;8.31;71.73;101602.92;1545270;90;20493;-79
2021/03/24 12:02:23;;;;;;;;;;;;;;;8.37;71.73;101599.55;1549855;91;20339;-77
2021/03/24 12:05:21;;;;;;;;;;;;;;;8.39;71.58;101602.57;1549827;91;20368;-77
2021/03/24 12:08:12;;;;;;;;;;;;;;;8.40;71.50;101596.99;1546898;90;20341;-78
2021/03/24 12:11:06;;;;;;;;;;;;;;;8.41;71.47;101597.01;1547249;91;20327;-78
2021/03/24 12:14:07;;;;;;;;;;;;;;;8.42;71.37;101591.00;1395918;86;20011492;-78
2021/03/24 12:17:00;;;;;;;;;;;;;;;8.39;71.30;101589.69;1634196;86;20333;-78
2021/03/24 12:19:44;;;;;;;;;;;;;;;8.39;71.37;101583.67;1643758;85;20558;-78
2021/03/24 12:22:31;;;;;;;;;;;;;;;8.42;71.42;101583.70;1638762;85;20353;-79
2021/03/24 12:25:27;;;;;;;;;;;;;;;8.44;71.25;101578.99;1640149;85;20321;-79
2021/03/24 12:28:11;;;;;;;;;;;;;;;8.45;71.23;101580.72;1654932;86;20317;-78
2021/03/24 12:31:09;;;;;;;;;;;;;;;8.52;71.27;101578.63;1664258;84;20327;-78
2021/03/24 12:33:59;;;;;;;;;;;;;;;8.59;71.35;101578.25;1658537;85;20289;-78
2021/03/24 12:36:50;;;;;;;;;;;;;;;8.67;71.32;101574.45;1663430;84;20271;-79
2021/03/24 12:39:39;;;;;;;;;;;;;;;8.75;71.25;101577.52;1663720;84;20421;-78
2021/03/24 12:42:29;;;;;;;;;;;;;;;8.75;71.01;101576.23;1662795;84;20295;-78
2021/03/24 12:45:29;;;;;;;;;;;;;;;8.71;71.02;101574.48;1662886;84;20677;-78
2021/03/24 12:48:34;;;;;;;;;;;;;;;8.71;71.04;101571.04;1665447;84;20306;-78
2021/03/24 12:51:23;;;;;;;;;;;;;;;8.73;71.19;101573.20;1662741;84;20307;-78
2021/03/24 12:54:10;;;;;;;;;;;;;;;8.78;71.10;101574.95;1638324;86;20550;-79
2021/03/24 12:57:02;;;;;;;;;;;;;;;8.81;71.11;101575.41;1637879;85;20439;-79
2021/03/24 13:00:11;;;;;;;;;;;;;;;8.86;71.15;101575.84;1592796;87;20344;-78
2021/03/24 13:03:19;;;;;;;;;;;;;;;8.94;71.13;101572.88;1650378;85;20319;-78
2021/03/24 13:06:13;;;;;;;;;;;;;;;9.02;71.01;101567.77;1637938;87;20340;-82
2021/03/24 13:09:21;;;;;;;;;;;;;;;9.09;70.95;101571.25;1645470;85;20338;-81
2021/03/24 13:12:15;;;;;;;;;;;;;;;9.12;70.82;101567.39;1601010;87;20311;-77
2021/03/24 13:15:12;;;;;;;;;;;;;;;9.15;70.85;101569.99;1632162;86;20278;-77
2021/03/24 13:18:09;;;;;;;;;;;;;;;9.14;70.70;101573.00;1624111;86;20325;-77
2021/03/24 13:21:09;;;;;;;;;;;;;;;9.10;70.78;101573.84;1629074;86;20518;-77
2021/03/24 13:23:58;;;;;;;;;;;;;;;9.12;70.70;101573.42;1611861;86;20346;-77
2021/03/24 13:26:43;;;;;;;;;;;;;;;9.10;70.69;101569.97;1626327;86;20330;-77
2021/03/24 13:29:37;;;;;;;;;;;;;;;9.09;70.79;101566.95;1623554;86;20321;-78
2021/03/24 13:32:41;;;;;;;;;;;;;;;9.12;70.62;101563.09;1629942;86;20293;-78
2021/03/24 13:35:47;;;;;;;;;;;;;;;9.13;70.71;101558.80;1628646;86;20338;-77
2021/03/24 13:38:41;;;;;;;;;;;;;;;9.14;70.62;101553.64;1573557;89;21318;-77
2021/03/24 13:41:26;;;;;;;;;;;;;;;9.15;70.63;101557.95;1628165;86;20313;-78
2021/03/24 13:44:20;;;;;;;;;;;;;;;9.15;70.53;101549.34;1610595;86;20322;-78
2021/03/24 13:47:08;;;;;;;;;;;;;;;9.15;70.49;101554.51;1619749;86;20316;-78
2021/03/24 13:49:58;;;;;;;;;;;;;;;9.18;70.59;101550.66;1620450;86;20317;-78
2021/03/24 13:52:46;;;;;;;;;;;;;;;9.16;70.45;101550.64;1627832;86;20466;-79
2021/03/24 13:55:53;;;;;;;;;;;;;;;9.14;70.27;101546.33;1623584;86;20274;-78
2021/03/24 13:58:47;;;;;;;;;;;;;;;9.11;70.27;101542.45;1625344;86;20308;-78
2021/03/24 14:01:52;;;;;;;;;;;;;;;9.06;70.19;101547.59;1622957;86;20471;-78
2021/03/24 14:04:39;;;;;;;;;;;;;;;9.09;70.39;101549.32;1629991;86;20278;-78
2021/03/24 14:07:43;;;;;;;;;;;;;;;9.14;70.32;101550.20;1626724;86;20314;-78
2021/03/24 14:10:31;;;;;;;;;;;;;;;9.21;70.41;101545.51;1622185;86;20313;-77
2021/03/24 14:13:40;;;;;;;;;;;;;;;9.28;70.33;101552.42;1622066;86;20658;-78
2021/03/24 14:16:28;;;;;;;;;;;;;;;9.30;70.23;101549.42;1617211;86;20582;-79
2021/03/24 14:19:28;;;;;;;;;;;;;;;9.29;70.19;101553.72;1629312;86;20617;-79
2021/03/24 14:22:32;;;;;;;;;;;;;;;9.29;70.14;101546.41;1633175;86;20285;-78
2021/03/24 14:25:26;;;;;;;;;;;;;;;9.25;70.12;101548.11;1603263;86;20336;-79
2021/03/24 14:28:24;;;;;;;;;;;;;;;9.20;70.00;101546.36;1625534;85;20502;-79
2021/03/24 14:31:20;;;;;;;;;;;;;;;9.17;70.03;101546.34;1636338;85;20264;-77
2021/03/24 14:34:23;;;;;;;;;;;;;;;9.15;69.98;101546.77;1657326;85;20949;-80
2021/03/24 14:37:27;;;;;;;;;;;;;;;9.09;69.97;101542.44;1643614;85;20284;-79
2021/03/24 14:40:16;;;;;;;;;;;;;;;8.89;69.66;101542.76;1610105;86;37891;-79
2021/03/24 14:43:07;;;;;;;;;;;;;;;8.74;69.87;101543.98;1636462;86;20309;-79
2021/03/24 14:46:10;;;;;;;;;;;;;;;8.69;69.86;101541.80;1611771;85;20297;-79
2021/03/24 14:49:06;;;;;;;;;;;;;;;8.63;69.82;101536.17;1631544;86;20316;-79
2021/03/24 14:52:04;;;;;;;;;;;;;;;8.51;69.75;101529.64;1619474;86;21374;-79
2021/03/24 14:54:53;;;;;;;;;;;;;;;8.46;70.01;101536.05;1371194;85;5002202;-79
2021/03/24 14:57:38;;;;;;;;;;;;;;;8.47;70.03;101533.05;1622107;85;20255;-80
2021/03/24 15:00:32;;;;;;;;;;;;;;;8.49;69.96;101530.06;1615277;86;20272;-79
2021/03/24 15:03:23;;;;;;;;;;;;;;;8.50;69.99;101530.50;1618235;85;20403;-79
2021/03/24 15:06:09;;;;;;;;;;;;;;;8.50;69.90;101526.62;1620567;85;20268;-79